sensor_id;sensor_type;location;lat;lon;timestamp;P1;durP1;ratioP1;P2;durP2;ratioP2
27402;SDS011;14862;49.494;8.530;2023-05-21T00:00:34;21.40;;;16.23;;
27402;SDS011;14862;49.494;8.530;2023-05-21T00:02:59;24.05;;;17.58;;
27402;SDS011;14862;49.494;8.530;2023-05-21T00:05:25;23.67;;;16.83;;
27402;SDS011;14862;49.494;8.530;2023-05-21T00:07:50;23.15;;;16.67;;
27402;SDS011;14862;49.494;8.530;2023-05-21T00:10:17;21.75;;;17.25;;
27402;SDS011;14862;49.494;8.530;2023-05-21T00:12:50;26.27;;;17.98;;
27402;SDS011;14862;49.494;8.530;2023-05-21T00:15:15;20.33;;;16.50;;
27402;SDS011;14862;49.494;8.530;2023-05-21T00:17:40;20.33;;;17.00;;
27402;SDS011;14862;49.494;8.530;2023-05-21T00:20:07;21.02;;;16.42;;
27402;SDS011;14862;49.494;8.530;2023-05-21T00:22:32;24.77;;;17.38;;
27402;SDS011;14862;49.494;8.530;2023-05-21T00:25:00;20.85;;;16.98;;
27402;SDS011;14862;49.494;8.530;2023-05-21T00:27:25;22.60;;;17.17;;
27402;SDS011;14862;49.494;8.530;2023-05-21T00:29:50;24.50;;;17.23;;
27402;SDS011;14862;49.494;8.530;2023-05-21T00:32:15;24.00;;;17.10;;
27402;SDS011;14862;49.494;8.530;2023-05-21T00:34:40;24.40;;;17.30;;
27402;SDS011;14862;49.494;8.530;2023-05-21T00:37:06;24.67;;;17.80;;
27402;SDS011;14862;49.494;8.530;2023-05-21T00:39:35;22.38;;;17.58;;
27402;SDS011;14862;49.494;8.530;2023-05-21T00:42:00;25.20;;;17.85;;
27402;SDS011;14862;49.494;8.530;2023-05-21T00:44:27;24.30;;;17.40;;
27402;SDS011;14862;49.494;8.530;2023-05-21T00:46:58;22.38;;;17.13;;
27402;SDS011;14862;49.494;8.530;2023-05-21T00:49:23;23.85;;;17.10;;
27402;SDS011;14862;49.494;8.530;2023-05-21T00:51:49;23.33;;;16.92;;
27402;SDS011;14862;49.494;8.530;2023-05-21T00:54:15;25.02;;;18.50;;
27402;SDS011;14862;49.494;8.530;2023-05-21T00:56:41;24.10;;;18.25;;
27402;SDS011;14862;49.494;8.530;2023-05-21T00:59:06;24.38;;;17.42;;
27402;SDS011;14862;49.494;8.530;2023-05-21T01:01:32;21.80;;;17.85;;
27402;SDS011;14862;49.494;8.530;2023-05-21T01:04:01;24.88;;;17.73;;
27402;SDS011;14862;49.494;8.530;2023-05-21T01:06:26;22.38;;;17.65;;
27402;SDS011;14862;49.494;8.530;2023-05-21T01:08:52;22.35;;;16.73;;
27402;SDS011;14862;49.494;8.530;2023-05-21T01:11:20;23.13;;;17.40;;
27402;SDS011;14862;49.494;8.530;2023-05-21T01:13:45;27.70;;;19.02;;
27402;SDS011;14862;49.494;8.530;2023-05-21T01:16:11;21.88;;;18.23;;
27402;SDS011;14862;49.494;8.530;2023-05-21T01:18:41;26.98;;;18.38;;
27402;SDS011;14862;49.494;8.530;2023-05-21T01:21:09;23.50;;;17.70;;
27402;SDS011;14862;49.494;8.530;2023-05-21T01:23:34;26.08;;;18.92;;
27402;SDS011;14862;49.494;8.530;2023-05-21T01:25:59;24.65;;;18.10;;
27402;SDS011;14862;49.494;8.530;2023-05-21T01:28:25;22.98;;;17.45;;
27402;SDS011;14862;49.494;8.530;2023-05-21T01:30:50;25.45;;;17.10;;
27402;SDS011;14862;49.494;8.530;2023-05-21T01:33:20;24.98;;;17.33;;
27402;SDS011;14862;49.494;8.530;2023-05-21T01:35:49;24.08;;;17.00;;
27402;SDS011;14862;49.494;8.530;2023-05-21T01:38:32;23.00;;;17.10;;
27402;SDS011;14862;49.494;8.530;2023-05-21T01:41:02;24.20;;;18.02;;
27402;SDS011;14862;49.494;8.530;2023-05-21T01:43:31;25.15;;;18.30;;
27402;SDS011;14862;49.494;8.530;2023-05-21T01:45:57;25.33;;;18.60;;
27402;SDS011;14862;49.494;8.530;2023-05-21T01:48:24;24.17;;;16.98;;
27402;SDS011;14862;49.494;8.530;2023-05-21T01:50:50;25.45;;;18.60;;
27402;SDS011;14862;49.494;8.530;2023-05-21T01:53:16;22.25;;;16.75;;
27402;SDS011;14862;49.494;8.530;2023-05-21T01:55:42;24.77;;;17.02;;
27402;SDS011;14862;49.494;8.530;2023-05-21T01:58:07;24.98;;;18.05;;
27402;SDS011;14862;49.494;8.530;2023-05-21T02:00:33;25.05;;;18.17;;
27402;SDS011;14862;49.494;8.530;2023-05-21T02:02:59;23.83;;;17.63;;
27402;SDS011;14862;49.494;8.530;2023-05-21T02:05:24;23.43;;;17.80;;
27402;SDS011;14862;49.494;8.530;2023-05-21T02:07:49;24.58;;;17.98;;
27402;SDS011;14862;49.494;8.530;2023-05-21T02:10:18;24.13;;;17.77;;
27402;SDS011;14862;49.494;8.530;2023-05-21T02:12:44;28.10;;;18.15;;
27402;SDS011;14862;49.494;8.530;2023-05-21T02:15:09;24.10;;;17.38;;
27402;SDS011;14862;49.494;8.530;2023-05-21T02:17:35;25.85;;;18.25;;
27402;SDS011;14862;49.494;8.530;2023-05-21T02:20:02;26.05;;;18.50;;
27402;SDS011;14862;49.494;8.530;2023-05-21T02:22:46;24.42;;;17.00;;
27402;SDS011;14862;49.494;8.530;2023-05-21T02:25:13;25.48;;;17.92;;
27402;SDS011;14862;49.494;8.530;2023-05-21T02:27:38;25.20;;;18.13;;
27402;SDS011;14862;49.494;8.530;2023-05-21T02:30:08;24.98;;;17.77;;
27402;SDS011;14862;49.494;8.530;2023-05-21T02:32:33;26.17;;;18.45;;
27402;SDS011;14862;49.494;8.530;2023-05-21T02:34:59;22.75;;;16.92;;
27402;SDS011;14862;49.494;8.530;2023-05-21T02:37:25;24.80;;;17.27;;
27402;SDS011;14862;49.494;8.530;2023-05-21T02:39:54;23.52;;;17.27;;
27402;SDS011;14862;49.494;8.530;2023-05-21T02:42:22;26.02;;;17.95;;
27402;SDS011;14862;49.494;8.530;2023-05-21T02:44:48;26.63;;;18.42;;
27402;SDS011;14862;49.494;8.530;2023-05-21T02:47:13;22.67;;;17.83;;
27402;SDS011;14862;49.494;8.530;2023-05-21T02:49:38;23.88;;;17.08;;
27402;SDS011;14862;49.494;8.530;2023-05-21T02:52:04;25.33;;;17.20;;
27402;SDS011;14862;49.494;8.530;2023-05-21T02:54:29;25.17;;;18.23;;
27402;SDS011;14862;49.494;8.530;2023-05-21T02:56:54;27.02;;;18.30;;
27402;SDS011;14862;49.494;8.530;2023-05-21T02:59:19;25.43;;;18.23;;
27402;SDS011;14862;49.494;8.530;2023-05-21T03:01:44;24.77;;;17.47;;
27402;SDS011;14862;49.494;8.530;2023-05-21T03:04:10;21.83;;;16.67;;
27402;SDS011;14862;49.494;8.530;2023-05-21T03:06:35;25.02;;;18.40;;
27402;SDS011;14862;49.494;8.530;2023-05-21T03:09:01;21.55;;;16.48;;
27402;SDS011;14862;49.494;8.530;2023-05-21T03:11:26;25.90;;;18.48;;
27402;SDS011;14862;49.494;8.530;2023-05-21T03:13:52;21.90;;;17.35;;
27402;SDS011;14862;49.494;8.530;2023-05-21T03:16:17;26.07;;;17.00;;
27402;SDS011;14862;49.494;8.530;2023-05-21T03:18:42;22.57;;;17.40;;
27402;SDS011;14862;49.494;8.530;2023-05-21T03:21:08;25.40;;;16.73;;
27402;SDS011;14862;49.494;8.530;2023-05-21T03:23:33;24.45;;;16.88;;
27402;SDS011;14862;49.494;8.530;2023-05-21T03:25:58;25.40;;;17.80;;
27402;SDS011;14862;49.494;8.530;2023-05-21T03:28:24;23.80;;;17.73;;
27402;SDS011;14862;49.494;8.530;2023-05-21T03:30:50;23.50;;;17.98;;
27402;SDS011;14862;49.494;8.530;2023-05-21T03:33:16;24.65;;;17.75;;
27402;SDS011;14862;49.494;8.530;2023-05-21T03:35:41;23.83;;;17.30;;
27402;SDS011;14862;49.494;8.530;2023-05-21T03:38:06;21.35;;;16.50;;
27402;SDS011;14862;49.494;8.530;2023-05-21T03:40:31;24.47;;;17.83;;
27402;SDS011;14862;49.494;8.530;2023-05-21T03:42:57;23.27;;;17.30;;
27402;SDS011;14862;49.494;8.530;2023-05-21T03:45:22;22.37;;;17.10;;
27402;SDS011;14862;49.494;8.530;2023-05-21T03:47:47;24.93;;;17.50;;
27402;SDS011;14862;49.494;8.530;2023-05-21T03:50:13;23.17;;;17.73;;
27402;SDS011;14862;49.494;8.530;2023-05-21T03:52:38;24.23;;;17.55;;
27402;SDS011;14862;49.494;8.530;2023-05-21T03:55:04;22.38;;;16.77;;
27402;SDS011;14862;49.494;8.530;2023-05-21T03:57:29;24.60;;;17.00;;
27402;SDS011;14862;49.494;8.530;2023-05-21T03:59:54;20.65;;;16.55;;
27402;SDS011;14862;49.494;8.530;2023-05-21T04:02:22;25.30;;;18.08;;
27402;SDS011;14862;49.494;8.530;2023-05-21T04:04:49;28.38;;;18.38;;
27402;SDS011;14862;49.494;8.530;2023-05-21T04:07:15;23.73;;;18.00;;
27402;SDS011;14862;49.494;8.530;2023-05-21T04:09:43;21.00;;;16.63;;
27402;SDS011;14862;49.494;8.530;2023-05-21T04:12:08;26.87;;;18.17;;
27402;SDS011;14862;49.494;8.530;2023-05-21T04:14:33;24.25;;;17.38;;
27402;SDS011;14862;49.494;8.530;2023-05-21T04:16:59;25.83;;;17.38;;
27402;SDS011;14862;49.494;8.530;2023-05-21T04:19:24;24.30;;;16.73;;
27402;SDS011;14862;49.494;8.530;2023-05-21T04:21:49;26.57;;;18.17;;
27402;SDS011;14862;49.494;8.530;2023-05-21T04:24:14;24.98;;;17.63;;
27402;SDS011;14862;49.494;8.530;2023-05-21T04:26:40;23.45;;;17.40;;
27402;SDS011;14862;49.494;8.530;2023-05-21T04:29:06;22.10;;;16.63;;
27402;SDS011;14862;49.494;8.530;2023-05-21T04:31:32;23.80;;;17.17;;
27402;SDS011;14862;49.494;8.530;2023-05-21T04:33:57;20.95;;;16.50;;
27402;SDS011;14862;49.494;8.530;2023-05-21T04:36:23;22.02;;;17.50;;
27402;SDS011;14862;49.494;8.530;2023-05-21T04:38:48;23.45;;;16.40;;
27402;SDS011;14862;49.494;8.530;2023-05-21T04:41:13;21.53;;;16.80;;
27402;SDS011;14862;49.494;8.530;2023-05-21T04:43:39;22.05;;;16.25;;
27402;SDS011;14862;49.494;8.530;2023-05-21T04:46:08;22.75;;;17.15;;
27402;SDS011;14862;49.494;8.530;2023-05-21T04:48:33;23.13;;;16.50;;
27402;SDS011;14862;49.494;8.530;2023-05-21T04:50:58;22.42;;;15.85;;
27402;SDS011;14862;49.494;8.530;2023-05-21T04:53:23;22.77;;;16.55;;
27402;SDS011;14862;49.494;8.530;2023-05-21T04:55:49;20.77;;;15.68;;
27402;SDS011;14862;49.494;8.530;2023-05-21T04:58:15;24.95;;;15.73;;
27402;SDS011;14862;49.494;8.530;2023-05-21T05:00:42;22.30;;;16.50;;
27402;SDS011;14862;49.494;8.530;2023-05-21T05:03:10;20.73;;;14.75;;
27402;SDS011;14862;49.494;8.530;2023-05-21T05:05:35;20.63;;;15.20;;
27402;SDS011;14862;49.494;8.530;2023-05-21T05:08:00;20.05;;;15.55;;
27402;SDS011;14862;49.494;8.530;2023-05-21T05:10:26;23.33;;;14.95;;
27402;SDS011;14862;49.494;8.530;2023-05-21T05:12:51;23.13;;;14.93;;
27402;SDS011;14862;49.494;8.530;2023-05-21T05:15:16;21.30;;;15.18;;
27402;SDS011;14862;49.494;8.530;2023-05-21T05:17:42;21.10;;;14.07;;
27402;SDS011;14862;49.494;8.530;2023-05-21T05:20:08;20.92;;;14.90;;
27402;SDS011;14862;49.494;8.530;2023-05-21T05:22:33;20.85;;;14.43;;
27402;SDS011;14862;49.494;8.530;2023-05-21T05:24:59;21.73;;;14.67;;
27402;SDS011;14862;49.494;8.530;2023-05-21T05:27:24;19.20;;;14.10;;
27402;SDS011;14862;49.494;8.530;2023-05-21T05:29:50;17.05;;;13.40;;
27402;SDS011;14862;49.494;8.530;2023-05-21T05:32:15;18.50;;;14.60;;
27402;SDS011;14862;49.494;8.530;2023-05-21T05:34:40;18.13;;;13.63;;
27402;SDS011;14862;49.494;8.530;2023-05-21T05:37:06;20.98;;;14.25;;
27402;SDS011;14862;49.494;8.530;2023-05-21T05:39:31;16.73;;;13.70;;
27402;SDS011;14862;49.494;8.530;2023-05-21T05:41:57;20.07;;;14.40;;
27402;SDS011;14862;49.494;8.530;2023-05-21T05:44:22;18.02;;;13.55;;
27402;SDS011;14862;49.494;8.530;2023-05-21T05:46:47;18.40;;;12.90;;
27402;SDS011;14862;49.494;8.530;2023-05-21T05:49:12;17.90;;;14.00;;
27402;SDS011;14862;49.494;8.530;2023-05-21T05:51:38;18.73;;;13.43;;
27402;SDS011;14862;49.494;8.530;2023-05-21T05:54:03;20.17;;;14.95;;
27402;SDS011;14862;49.494;8.530;2023-05-21T05:56:28;22.40;;;14.13;;
27402;SDS011;14862;49.494;8.530;2023-05-21T05:58:53;20.30;;;13.55;;
27402;SDS011;14862;49.494;8.530;2023-05-21T06:01:19;17.17;;;12.75;;
27402;SDS011;14862;49.494;8.530;2023-05-21T06:03:46;17.27;;;12.77;;
27402;SDS011;14862;49.494;8.530;2023-05-21T06:06:11;16.42;;;12.10;;
27402;SDS011;14862;49.494;8.530;2023-05-21T06:08:37;15.77;;;12.60;;
27402;SDS011;14862;49.494;8.530;2023-05-21T06:11:02;16.00;;;12.43;;
27402;SDS011;14862;49.494;8.530;2023-05-21T06:13:27;16.50;;;12.18;;
27402;SDS011;14862;49.494;8.530;2023-05-21T06:15:52;15.20;;;12.10;;
27402;SDS011;14862;49.494;8.530;2023-05-21T06:18:17;12.30;;;10.93;;
27402;SDS011;14862;49.494;8.530;2023-05-21T06:20:43;13.48;;;11.55;;
27402;SDS011;14862;49.494;8.530;2023-05-21T06:23:08;14.48;;;11.63;;
27402;SDS011;14862;49.494;8.530;2023-05-21T06:25:33;13.63;;;11.20;;
27402;SDS011;14862;49.494;8.530;2023-05-21T06:27:58;11.80;;;10.32;;
27402;SDS011;14862;49.494;8.530;2023-05-21T06:30:24;13.83;;;11.10;;
27402;SDS011;14862;49.494;8.530;2023-05-21T06:32:49;13.30;;;11.27;;
27402;SDS011;14862;49.494;8.530;2023-05-21T06:35:14;11.88;;;9.75;;
27402;SDS011;14862;49.494;8.530;2023-05-21T06:37:40;13.15;;;10.50;;
27402;SDS011;14862;49.494;8.530;2023-05-21T06:40:05;12.77;;;10.80;;
27402;SDS011;14862;49.494;8.530;2023-05-21T06:42:31;12.50;;;10.52;;
27402;SDS011;14862;49.494;8.530;2023-05-21T06:44:56;13.05;;;10.32;;
27402;SDS011;14862;49.494;8.530;2023-05-21T06:47:22;14.27;;;10.73;;
27402;SDS011;14862;49.494;8.530;2023-05-21T06:49:47;13.00;;;10.38;;
27402;SDS011;14862;49.494;8.530;2023-05-21T06:52:12;10.87;;;9.77;;
27402;SDS011;14862;49.494;8.530;2023-05-21T06:54:37;13.57;;;11.03;;
27402;SDS011;14862;49.494;8.530;2023-05-21T06:57:03;14.60;;;10.30;;
27402;SDS011;14862;49.494;8.530;2023-05-21T06:59:28;11.43;;;9.32;;
27402;SDS011;14862;49.494;8.530;2023-05-21T07:01:53;13.77;;;9.97;;
27402;SDS011;14862;49.494;8.530;2023-05-21T07:04:18;11.87;;;9.50;;
27402;SDS011;14862;49.494;8.530;2023-05-21T07:06:43;12.85;;;9.88;;
27402;SDS011;14862;49.494;8.530;2023-05-21T07:09:09;10.00;;;9.00;;
27402;SDS011;14862;49.494;8.530;2023-05-21T07:11:34;12.10;;;9.23;;
27402;SDS011;14862;49.494;8.530;2023-05-21T07:14:00;10.23;;;9.23;;
27402;SDS011;14862;49.494;8.530;2023-05-21T07:16:25;12.10;;;10.90;;
27402;SDS011;14862;49.494;8.530;2023-05-21T07:18:50;10.85;;;9.75;;
27402;SDS011;14862;49.494;8.530;2023-05-21T07:21:16;9.97;;;8.97;;
27402;SDS011;14862;49.494;8.530;2023-05-21T07:23:41;10.07;;;9.07;;
27402;SDS011;14862;49.494;8.530;2023-05-21T07:26:07;10.00;;;9.00;;
27402;SDS011;14862;49.494;8.530;2023-05-21T07:28:32;12.63;;;9.45;;
27402;SDS011;14862;49.494;8.530;2023-05-21T07:30:58;9.17;;;8.27;;
27402;SDS011;14862;49.494;8.530;2023-05-21T07:33:23;12.10;;;9.60;;
27402;SDS011;14862;49.494;8.530;2023-05-21T07:35:48;10.60;;;9.50;;
27402;SDS011;14862;49.494;8.530;2023-05-21T07:38:13;9.95;;;9.05;;
27402;SDS011;14862;49.494;8.530;2023-05-21T07:40:39;10.60;;;8.73;;
27402;SDS011;14862;49.494;8.530;2023-05-21T07:43:04;11.05;;;9.25;;
27402;SDS011;14862;49.494;8.530;2023-05-21T07:45:29;9.77;;;8.88;;
27402;SDS011;14862;49.494;8.530;2023-05-21T07:47:54;10.38;;;9.32;;
27402;SDS011;14862;49.494;8.530;2023-05-21T07:50:20;9.43;;;8.20;;
27402;SDS011;14862;49.494;8.530;2023-05-21T07:52:46;9.60;;;8.63;;
27402;SDS011;14862;49.494;8.530;2023-05-21T07:55:11;11.40;;;9.20;;
27402;SDS011;14862;49.494;8.530;2023-05-21T07:57:36;11.70;;;8.88;;
27402;SDS011;14862;49.494;8.530;2023-05-21T08:00:02;10.45;;;8.77;;
27402;SDS011;14862;49.494;8.530;2023-05-21T08:02:27;8.75;;;7.95;;
27402;SDS011;14862;49.494;8.530;2023-05-21T08:04:53;10.57;;;8.67;;
27402;SDS011;14862;49.494;8.530;2023-05-21T08:07:19;9.38;;;8.38;;
27402;SDS011;14862;49.494;8.530;2023-05-21T08:09:45;10.00;;;9.00;;
27402;SDS011;14862;49.494;8.530;2023-05-21T08:12:11;13.07;;;9.57;;
27402;SDS011;14862;49.494;8.530;2023-05-21T08:14:39;9.63;;;8.63;;
27402;SDS011;14862;49.494;8.530;2023-05-21T08:17:05;12.98;;;9.13;;
27402;SDS011;14862;49.494;8.530;2023-05-21T08:19:30;9.98;;;8.60;;
27402;SDS011;14862;49.494;8.530;2023-05-21T08:21:56;10.18;;;8.88;;
27402;SDS011;14862;49.494;8.530;2023-05-21T08:24:22;10.77;;;8.70;;
27402;SDS011;14862;49.494;8.530;2023-05-21T08:26:47;9.75;;;8.75;;
27402;SDS011;14862;49.494;8.530;2023-05-21T08:29:14;10.52;;;9.00;;
27402;SDS011;14862;49.494;8.530;2023-05-21T08:31:39;11.00;;;8.30;;
27402;SDS011;14862;49.494;8.530;2023-05-21T08:34:05;9.82;;;8.82;;
27402;SDS011;14862;49.494;8.530;2023-05-21T08:36:30;11.50;;;8.47;;
27402;SDS011;14862;49.494;8.530;2023-05-21T08:38:55;9.30;;;8.00;;
27402;SDS011;14862;49.494;8.530;2023-05-21T08:41:21;9.05;;;8.23;;
27402;SDS011;14862;49.494;8.530;2023-05-21T08:43:47;8.73;;;7.82;;
27402;SDS011;14862;49.494;8.530;2023-05-21T08:46:17;9.63;;;8.70;;
27402;SDS011;14862;49.494;8.530;2023-05-21T08:48:44;9.10;;;8.27;;
27402;SDS011;14862;49.494;8.530;2023-05-21T08:51:10;9.85;;;8.85;;
27402;SDS011;14862;49.494;8.530;2023-05-21T08:53:36;9.93;;;8.43;;
27402;SDS011;14862;49.494;8.530;2023-05-21T08:56:01;9.17;;;8.27;;
27402;SDS011;14862;49.494;8.530;2023-05-21T08:58:27;10.65;;;8.80;;
27402;SDS011;14862;49.494;8.530;2023-05-21T09:00:53;11.65;;;8.52;;
27402;SDS011;14862;49.494;8.530;2023-05-21T09:03:18;9.88;;;8.82;;
27402;SDS011;14862;49.494;8.530;2023-05-21T09:05:46;10.82;;;9.00;;
27402;SDS011;14862;49.494;8.530;2023-05-21T09:08:18;9.35;;;8.45;;
27402;SDS011;14862;49.494;8.530;2023-05-21T09:10:48;11.27;;;8.35;;
27402;SDS011;14862;49.494;8.530;2023-05-21T09:13:14;9.32;;;8.43;;
27402;SDS011;14862;49.494;8.530;2023-05-21T09:15:41;11.35;;;8.88;;
27402;SDS011;14862;49.494;8.530;2023-05-21T09:18:06;8.80;;;7.87;;
27402;SDS011;14862;49.494;8.530;2023-05-21T09:20:31;11.87;;;8.77;;
27402;SDS011;14862;49.494;8.530;2023-05-21T09:22:57;11.30;;;8.20;;
27402;SDS011;14862;49.494;8.530;2023-05-21T09:25:26;9.57;;;8.57;;
27402;SDS011;14862;49.494;8.530;2023-05-21T09:27:57;9.38;;;8.48;;
27402;SDS011;14862;49.494;8.530;2023-05-21T09:30:22;9.85;;;8.85;;
27402;SDS011;14862;49.494;8.530;2023-05-21T09:32:51;9.10;;;8.20;;
27402;SDS011;14862;49.494;8.530;2023-05-21T09:35:18;9.75;;;8.75;;
27402;SDS011;14862;49.494;8.530;2023-05-21T09:37:44;12.95;;;9.25;;
27402;SDS011;14862;49.494;8.530;2023-05-21T09:42:37;10.15;;;8.68;;
27402;SDS011;14862;49.494;8.530;2023-05-21T09:45:03;9.20;;;8.30;;
27402;SDS011;14862;49.494;8.530;2023-05-21T09:47:28;8.85;;;7.90;;
27402;SDS011;14862;49.494;8.530;2023-05-21T09:49:56;9.20;;;8.27;;
27402;SDS011;14862;49.494;8.530;2023-05-21T09:52:22;12.35;;;8.60;;
27402;SDS011;14862;49.494;8.530;2023-05-21T09:54:47;10.35;;;8.70;;
27402;SDS011;14862;49.494;8.530;2023-05-21T09:57:13;14.07;;;9.07;;
27402;SDS011;14862;49.494;8.530;2023-05-21T09:59:38;10.87;;;9.07;;
27402;SDS011;14862;49.494;8.530;2023-05-21T10:02:13;11.77;;;9.00;;
27402;SDS011;14862;49.494;8.530;2023-05-21T10:04:39;11.40;;;9.05;;
27402;SDS011;14862;49.494;8.530;2023-05-21T10:07:05;10.70;;;9.05;;
27402;SDS011;14862;49.494;8.530;2023-05-21T10:09:30;13.20;;;9.50;;
27402;SDS011;14862;49.494;8.530;2023-05-21T10:11:56;9.52;;;8.57;;
27402;SDS011;14862;49.494;8.530;2023-05-21T10:14:22;9.73;;;8.77;;
27402;SDS011;14862;49.494;8.530;2023-05-21T10:16:49;11.02;;;9.02;;
27402;SDS011;14862;49.494;8.530;2023-05-21T10:19:16;9.88;;;8.98;;
27402;SDS011;14862;49.494;8.530;2023-05-21T10:21:42;10.68;;;9.52;;
27402;SDS011;14862;49.494;8.530;2023-05-21T10:24:08;10.30;;;9.23;;
27402;SDS011;14862;49.494;8.530;2023-05-21T10:26:34;12.50;;;9.57;;
27402;SDS011;14862;49.494;8.530;2023-05-21T10:29:00;14.18;;;10.20;;
27402;SDS011;14862;49.494;8.530;2023-05-21T10:31:26;11.20;;;9.98;;
27402;SDS011;14862;49.494;8.530;2023-05-21T10:33:55;12.55;;;10.90;;
27402;SDS011;14862;49.494;8.530;2023-05-21T10:36:20;10.55;;;9.40;;
27402;SDS011;14862;49.494;8.530;2023-05-21T10:38:46;11.60;;;9.57;;
27402;SDS011;14862;49.494;8.530;2023-05-21T10:41:11;10.77;;;9.65;;
27402;SDS011;14862;49.494;8.530;2023-05-21T10:59:38;10.73;;;9.63;;
27402;SDS011;14862;49.494;8.530;2023-05-21T11:02:04;10.20;;;9.20;;
27402;SDS011;14862;49.494;8.530;2023-05-21T11:04:30;12.35;;;9.45;;
27402;SDS011;14862;49.494;8.530;2023-05-21T11:06:57;10.17;;;8.47;;
27402;SDS011;14862;49.494;8.530;2023-05-21T11:09:22;10.13;;;9.13;;
27402;SDS011;14862;49.494;8.530;2023-05-21T11:11:50;12.73;;;9.65;;
27402;SDS011;14862;49.494;8.530;2023-05-21T11:16:50;10.02;;;9.02;;
27402;SDS011;14862;49.494;8.530;2023-05-21T11:19:16;12.10;;;9.68;;
27402;SDS011;14862;49.494;8.530;2023-05-21T11:21:41;10.20;;;9.18;;
27402;SDS011;14862;49.494;8.530;2023-05-21T11:24:07;9.35;;;8.45;;
27402;SDS011;14862;49.494;8.530;2023-05-21T11:29:11;10.02;;;9.05;;
27402;SDS011;14862;49.494;8.530;2023-05-21T11:31:37;10.00;;;9.07;;
27402;SDS011;14862;49.494;8.530;2023-05-21T11:34:18;9.95;;;8.93;;
27402;SDS011;14862;49.494;8.530;2023-05-21T11:36:45;10.00;;;8.85;;
27402;SDS011;14862;49.494;8.530;2023-05-21T11:39:11;12.43;;;9.50;;
27402;SDS011;14862;49.494;8.530;2023-05-21T11:44:20;10.82;;;9.15;;
27402;SDS011;14862;49.494;8.530;2023-05-21T11:46:45;10.40;;;9.40;;
27402;SDS011;14862;49.494;8.530;2023-05-21T11:49:12;10.32;;;8.38;;
27402;SDS011;14862;49.494;8.530;2023-05-21T11:51:38;9.23;;;8.20;;
27402;SDS011;14862;49.494;8.530;2023-05-21T11:54:06;13.20;;;8.68;;
27402;SDS011;14862;49.494;8.530;2023-05-21T11:56:32;10.02;;;8.75;;
27402;SDS011;14862;49.494;8.530;2023-05-21T11:59:01;11.52;;;9.40;;
27402;SDS011;14862;49.494;8.530;2023-05-21T12:01:26;9.40;;;8.40;;
27402;SDS011;14862;49.494;8.530;2023-05-21T12:03:51;9.68;;;8.77;;
27402;SDS011;14862;49.494;8.530;2023-05-21T12:06:16;9.97;;;8.97;;
27402;SDS011;14862;49.494;8.530;2023-05-21T12:08:42;11.02;;;9.90;;
27402;SDS011;14862;49.494;8.530;2023-05-21T12:11:09;9.32;;;8.43;;
27402;SDS011;14862;49.494;8.530;2023-05-21T12:13:35;10.48;;;8.80;;
27402;SDS011;14862;49.494;8.530;2023-05-21T12:16:01;9.10;;;7.88;;
27402;SDS011;14862;49.494;8.530;2023-05-21T12:18:26;12.00;;;8.48;;
27402;SDS011;14862;49.494;8.530;2023-05-21T12:20:51;10.30;;;7.87;;
27402;SDS011;14862;49.494;8.530;2023-05-21T12:23:23;9.10;;;7.53;;
27402;SDS011;14862;49.494;8.530;2023-05-21T12:25:48;10.30;;;8.35;;
27402;SDS011;14862;49.494;8.530;2023-05-21T12:28:14;8.93;;;7.53;;
27402;SDS011;14862;49.494;8.530;2023-05-21T12:30:39;9.77;;;8.20;;
27402;SDS011;14862;49.494;8.530;2023-05-21T12:33:04;9.70;;;7.82;;
27402;SDS011;14862;49.494;8.530;2023-05-21T12:35:30;8.93;;;8.02;;
27402;SDS011;14862;49.494;8.530;2023-05-21T12:37:56;8.52;;;7.72;;
27402;SDS011;14862;49.494;8.530;2023-05-21T12:40:21;9.02;;;7.32;;
27402;SDS011;14862;49.494;8.530;2023-05-21T12:42:59;8.45;;;7.10;;
27402;SDS011;14862;49.494;8.530;2023-05-21T12:45:24;10.82;;;7.65;;
27402;SDS011;14862;49.494;8.530;2023-05-21T12:47:49;11.68;;;7.72;;
27402;SDS011;14862;49.494;8.530;2023-05-21T12:50:19;8.63;;;6.90;;
27402;SDS011;14862;49.494;8.530;2023-05-21T12:52:45;7.63;;;6.88;;
27402;SDS011;14862;49.494;8.530;2023-05-21T12:55:11;8.70;;;7.10;;
27402;SDS011;14862;49.494;8.530;2023-05-21T12:57:37;8.40;;;7.60;;
27402;SDS011;14862;49.494;8.530;2023-05-21T13:00:03;9.60;;;7.20;;
27402;SDS011;14862;49.494;8.530;2023-05-21T13:02:31;11.52;;;7.35;;
27402;SDS011;14862;49.494;8.530;2023-05-21T13:04:57;8.32;;;7.47;;
27402;SDS011;14862;49.494;8.530;2023-05-21T13:07:23;7.97;;;7.20;;
27402;SDS011;14862;49.494;8.530;2023-05-21T13:09:49;10.70;;;7.03;;
27402;SDS011;14862;49.494;8.530;2023-05-21T13:12:16;7.75;;;6.97;;
27402;SDS011;14862;49.494;8.530;2023-05-21T13:14:42;8.82;;;6.60;;
27402;SDS011;14862;49.494;8.530;2023-05-21T13:17:07;7.90;;;6.97;;
27402;SDS011;14862;49.494;8.530;2023-05-21T13:19:32;7.15;;;6.55;;
27402;SDS011;14862;49.494;8.530;2023-05-21T13:21:58;9.20;;;7.25;;
27402;SDS011;14862;49.494;8.530;2023-05-21T13:24:23;7.32;;;6.60;;
27402;SDS011;14862;49.494;8.530;2023-05-21T13:26:48;6.97;;;6.27;;
27402;SDS011;14862;49.494;8.530;2023-05-21T13:29:14;8.27;;;6.85;;
27402;SDS011;14862;49.494;8.530;2023-05-21T13:31:40;8.45;;;7.45;;
27402;SDS011;14862;49.494;8.530;2023-05-21T13:34:05;8.10;;;6.97;;
27402;SDS011;14862;49.494;8.530;2023-05-21T13:36:31;8.30;;;6.57;;
27402;SDS011;14862;49.494;8.530;2023-05-21T13:38:57;8.52;;;6.95;;
27402;SDS011;14862;49.494;8.530;2023-05-21T13:41:22;13.37;;;7.20;;
27402;SDS011;14862;49.494;8.530;2023-05-21T13:43:47;9.98;;;6.55;;
27402;SDS011;14862;49.494;8.530;2023-05-21T13:46:12;7.70;;;6.97;;
27402;SDS011;14862;49.494;8.530;2023-05-21T13:48:37;6.73;;;6.03;;
27402;SDS011;14862;49.494;8.530;2023-05-21T13:51:04;7.88;;;7.18;;
27402;SDS011;14862;49.494;8.530;2023-05-21T13:53:29;6.63;;;6.03;;
27402;SDS011;14862;49.494;8.530;2023-05-21T13:55:54;10.53;;;7.20;;
27402;SDS011;14862;49.494;8.530;2023-05-21T13:58:19;8.02;;;6.15;;
27402;SDS011;14862;49.494;8.530;2023-05-21T14:00:45;8.70;;;7.00;;
27402;SDS011;14862;49.494;8.530;2023-05-21T14:03:10;6.95;;;6.10;;
27402;SDS011;14862;49.494;8.530;2023-05-21T14:05:35;7.05;;;6.07;;
27402;SDS011;14862;49.494;8.530;2023-05-21T14:08:01;7.18;;;5.78;;
27402;SDS011;14862;49.494;8.530;2023-05-21T14:10:26;5.65;;;5.15;;
27402;SDS011;14862;49.494;8.530;2023-05-21T14:12:51;8.40;;;5.32;;
27402;SDS011;14862;49.494;8.530;2023-05-21T14:15:17;7.15;;;6.20;;
27402;SDS011;14862;49.494;8.530;2023-05-21T14:17:42;6.45;;;5.50;;
27402;SDS011;14862;49.494;8.530;2023-05-21T14:20:08;6.72;;;4.80;;
27402;SDS011;14862;49.494;8.530;2023-05-21T14:22:33;9.00;;;6.88;;
27402;SDS011;14862;49.494;8.530;2023-05-21T14:24:58;8.67;;;6.40;;
27402;SDS011;14862;49.494;8.530;2023-05-21T14:27:24;8.80;;;6.00;;
27402;SDS011;14862;49.494;8.530;2023-05-21T14:29:49;7.35;;;5.80;;
27402;SDS011;14862;49.494;8.530;2023-05-21T14:32:14;11.15;;;7.32;;
27402;SDS011;14862;49.494;8.530;2023-05-21T14:34:42;8.30;;;6.53;;
27402;SDS011;14862;49.494;8.530;2023-05-21T14:37:07;7.32;;;5.60;;
27402;SDS011;14862;49.494;8.530;2023-05-21T14:39:32;9.83;;;5.80;;
27402;SDS011;14862;49.494;8.530;2023-05-21T14:41:58;9.80;;;6.50;;
27402;SDS011;14862;49.494;8.530;2023-05-21T14:44:23;7.85;;;6.63;;
27402;SDS011;14862;49.494;8.530;2023-05-21T14:46:48;6.93;;;6.32;;
27402;SDS011;14862;49.494;8.530;2023-05-21T14:49:13;8.45;;;6.28;;